Como, Indiana
Current Conditions -  °F | °C
As of 3:53 AM on Saturday 22 Nov 2014 (Local Time) from KMIE Reporting Station
Overcast Overcast  
Wind Chill: 28°   Ceiling: 1600
Heat Index: 36°   Visibility: 10mi
Dew Point: 19°   Wind: 13mph
Humidity: 50%   Direction: 200°SSW
Pressure: 30.24"   Gusts: 21mph
Location:  40.4312°N, 85.0058°W
Report Text: KMIE 220853Z AUTO 20011G18KT 10SM OVC016 02/M07 A3024 RMK AO2 SLP246 T00221072 56018
Loading
Personal Weather Stations






























Interactive Weather Map New forecast layout! Learn more

10-Day Weather Forecast

Advertisements
Track Severe Weather on mobile